Time;durP1;ratioP1;P1;durP2;ratioP2;P2;SDS_P1;SDS_P2;PMS_P1;PMS_P2;Temp;Humidity;BMP_temperature;BMP_pressure;BME280_temperature;BME280_humidity;BME280_pressure;Samples;Min_cycle;Max_cycle;Signal;HPM_P1;HPM_P2
2023/03/14 00:02:37;;;;;;;7.07;2.70;;;;;;;8.05;100.00;94600.72;10415909;28;20232;-61
2023/03/14 00:07:39;;;;;;;8.33;3.83;;;;;;;7.95;100.00;94585.44;10416034;28;20701;-61
2023/03/14 00:12:40;;;;;;;2.60;2.40;;;;;;;7.98;100.00;94573.84;10415643;28;20208;-61
2023/03/14 00:17:42;;;;;;;2.67;2.40;;;;;;;8.02;100.00;94538.53;10415704;28;20581;-60
2023/03/14 00:22:43;;;;;;;3.27;2.97;;;;;;;8.13;100.00;94509.31;10415136;28;20267;-62
2023/03/14 00:27:43;;;;;;;4.03;2.67;;;;;;;8.33;100.00;94480.66;10414738;28;20804;-62
2023/03/14 00:32:46;;;;;;;2.97;2.43;;;;;;;8.18;100.00;94483.44;10413777;28;20969;-62
2023/03/14 00:37:47;;;;;;;3.43;1.93;;;;;;;8.20;100.00;94515.31;10414790;28;20287;-63
2023/03/14 00:42:47;;;;;;;1.50;1.30;;;;;;;8.27;100.00;94517.97;10414592;28;20256;-62
2023/03/14 00:47:47;;;;;;;2.30;2.00;;;;;;;8.16;100.00;94532.38;10413367;28;20239;-63
2023/03/14 00:52:48;;;;;;;2.10;1.90;;;;;;;8.16;100.00;94539.38;10414333;28;20623;-63
2023/03/14 00:57:49;;;;;;;3.97;2.87;;;;;;;8.26;100.00;94547.66;10412569;28;20192;-60
2023/03/14 01:02:49;;;;;;;3.43;2.90;;;;;;;8.20;100.00;94545.84;10413806;28;20219;-64
2023/03/14 01:07:50;;;;;;;6.37;3.23;;;;;;;8.13;100.00;94545.81;10414123;28;20199;-64
2023/03/14 01:12:51;;;;;;;5.43;4.47;;;;;;;8.07;100.00;94551.81;10413875;28;21017;-64
2023/03/14 01:17:51;;;;;;;6.17;5.33;;;;;;;8.06;100.00;94533.75;10414006;28;20188;-64
2023/03/14 01:22:51;;;;;;;6.43;5.83;;;;;;;7.98;100.00;94538.13;10412945;28;20599;-65
2023/03/14 01:27:52;;;;;;;6.00;5.37;;;;;;;8.07;100.00;94538.78;10413504;28;20627;-65
2023/03/14 01:32:52;;;;;;;4.50;4.10;;;;;;;8.09;100.00;94541.97;10411910;28;20641;-64
2023/03/14 01:37:53;;;;;;;6.10;4.73;;;;;;;8.05;100.00;94540.75;10411641;28;20231;-65
2023/03/14 01:42:57;;;;;;;4.30;3.87;;;;;;;8.06;100.00;94537.16;10411693;28;20225;-62
2023/03/14 01:47:58;;;;;;;3.47;3.10;;;;;;;8.12;100.00;94518.13;10411422;28;20188;-65
2023/03/14 01:52:58;;;;;;;3.20;2.43;;;;;;;8.09;100.00;94502.06;10411395;28;20204;-64
2023/03/14 01:58:03;;;;;;;2.17;1.97;;;;;;;8.14;100.00;94499.66;10411003;28;20189;-65
2023/03/14 02:03:10;;;;;;;2.27;1.70;;;;;;;8.21;100.00;94490.06;10427133;28;20217;-64
2023/03/14 02:08:14;;;;;;;1.50;1.40;;;;;;;8.23;100.00;94484.66;10410901;28;20196;-65
2023/03/14 02:13:34;;;;;;;1.23;1.13;;;;;;;8.18;100.00;94474.81;10396694;28;20212;-65
2023/03/14 02:18:53;;;;;;;0.90;0.90;;;;;;;8.38;100.00;94478.25;10410179;28;20239;-65
2023/03/14 02:24:14;;;;;;;0.70;0.70;;;;;;;8.55;100.00;94465.66;10430104;23;20749;-63
2023/03/14 02:29:20;;;;;;;0.73;0.73;;;;;;;8.73;100.00;94453.84;10410025;28;20188;-63
2023/03/14 02:34:21;;;;;;;0.67;0.67;;;;;;;8.68;100.00;94458.84;10409595;28;20208;-63
2023/03/14 02:39:28;;;;;;;1.27;0.70;;;;;;;8.77;100.00;94431.53;10392863;28;20184;-63
2023/03/14 02:44:28;;;;;;;1.83;0.50;;;;;;;8.79;100.00;94441.78;10426074;28;20224;-64
2023/03/14 02:49:31;;;;;;;0.63;0.60;;;;;;;9.07;100.00;94442.34;10409353;28;20181;-64
2023/03/14 02:54:32;;;;;;;0.60;0.60;;;;;;;9.20;100.00;94436.28;10425650;28;20196;-64
2023/03/14 02:59:32;;;;;;;0.67;0.60;;;;;;;9.26;100.00;94412.00;10409325;28;20192;-64
2023/03/14 03:04:40;;;;;;;0.60;0.60;;;;;;;9.23;100.00;94399.34;10425398;28;20613;-64
2023/03/14 03:09:40;;;;;;;0.60;0.60;;;;;;;9.36;100.00;94366.34;10410540;28;20200;-63
2023/03/14 03:14:40;;;;;;;0.50;0.50;;;;;;;9.52;100.00;94381.53;10418120;28;20208;-63
2023/03/14 03:19:42;;;;;;;0.70;0.60;;;;;;;9.41;100.00;94376.97;10416548;28;20693;-63
2023/03/14 03:24:44;;;;;;;0.60;0.60;;;;;;;9.25;100.00;94404.38;10432600;28;20229;-63
2023/03/14 03:29:45;;;;;;;1.00;0.60;;;;;;;9.34;100.00;94417.97;10417378;28;20555;-62
2023/03/14 03:34:45;;;;;;;0.60;0.60;;;;;;;9.13;100.00;94424.25;10432551;28;20785;-63
2023/03/14 03:39:46;;;;;;;1.57;0.70;;;;;;;9.05;100.00;94412.22;10431873;28;20217;-63
2023/03/14 03:44:48;;;;;;;0.60;0.60;;;;;;;9.09;100.00;94403.78;10431519;28;20212;-62
2023/03/14 03:49:48;;;;;;;0.60;0.60;;;;;;;9.30;100.00;94382.84;10414994;28;20192;-62
2023/03/14 03:54:49;;;;;;;0.53;0.53;;;;;;;9.24;100.00;94360.94;10416236;28;20300;-61
2023/03/14 03:59:49;;;;;;;1.03;0.50;;;;;;;9.13;100.00;94351.94;10416264;28;20227;-61
2023/03/14 04:04:50;;;;;;;0.60;0.60;;;;;;;9.26;100.00;94331.00;10413811;28;20217;-62
2023/03/14 04:09:51;;;;;;;0.60;0.60;;;;;;;9.09;100.00;94351.53;10431403;28;20230;-61
2023/03/14 04:15:12;;;;;;;1.30;0.80;;;;;;;9.00;100.00;94341.53;10415450;28;20257;-62
2023/03/14 04:20:18;;;;;;;2.00;0.70;;;;;;;8.86;100.00;94362.44;10429785;28;20666;-62
2023/03/14 04:25:19;;;;;;;0.70;0.60;;;;;;;8.77;100.00;94384.53;10414985;28;20191;-62
2023/03/14 04:30:24;;;;;;;0.60;0.60;;;;;;;8.59;100.00;94373.94;10430302;28;20295;-63
2023/03/14 04:35:31;;;;;;;1.00;0.70;;;;;;;8.43;100.00;94378.53;10430386;28;20667;-62
2023/03/14 04:40:40;;;;;;;0.87;0.70;;;;;;;8.24;100.00;94374.09;10429917;28;20239;-62
2023/03/14 04:45:42;;;;;;;1.37;0.70;;;;;;;8.22;100.00;94358.63;10429937;28;20211;-63
2023/03/14 04:50:43;;;;;;;0.93;0.70;;;;;;;8.11;100.00;94372.28;10429509;28;20201;-63
2023/03/14 04:55:51;;;;;;;2.20;0.97;;;;;;;8.11;100.00;94364.47;10429701;28;20193;-62
2023/03/14 05:00:52;;;;;;;2.03;0.80;;;;;;;8.06;100.00;94366.88;10412262;28;20267;-61
2023/03/14 05:06:09;;;;;;;4.00;1.03;;;;;;;8.08;100.00;94370.06;10429131;28;20669;-59
2023/03/14 05:11:16;;;;;;;2.63;1.00;;;;;;;8.04;100.00;94359.25;10428896;28;20209;-62
2023/03/14 05:16:31;;;;;;;2.00;1.07;;;;;;;8.02;100.00;94356.00;10428688;28;20267;-61
2023/03/14 05:21:57;;;;;;;4.73;0.90;;;;;;;8.00;100.00;94365.84;10400645;28;20244;-62
2023/03/14 05:27:16;;;;;;;3.70;1.00;;;;;;;8.08;100.00;94357.81;10412753;28;20196;-60
2023/03/14 05:32:35;;;;;;;1.47;1.00;;;;;;;8.07;100.00;94352.81;10412173;28;20314;-62
2023/03/14 05:37:48;;;;;;;4.20;1.30;;;;;;;8.03;100.00;94327.13;10428107;28;20208;-61
2023/03/14 05:42:58;;;;;;;6.43;1.13;;;;;;;8.09;100.00;94319.53;10427335;28;20718;-62
2023/03/14 05:48:24;;;;;;;2.47;1.17;;;;;;;8.03;100.00;94319.31;10409472;28;20867;-63
2023/03/14 05:53:43;;;;;;;6.97;1.90;;;;;;;8.11;100.00;94315.72;10427479;28;20208;-63
2023/03/14 05:59:03;;;;;;;6.43;2.20;;;;;;;8.08;100.00;94325.75;10412060;28;20608;-63
2023/03/14 06:04:10;;;;;;;4.00;1.70;;;;;;;8.01;100.00;94328.34;10413167;28;20256;-63
2023/03/14 06:09:10;;;;;;;8.20;3.10;;;;;;;8.04;100.00;94325.34;10369400;28;20181;-63
2023/03/14 06:14:14;;;;;;;6.33;2.43;;;;;;;7.95;100.00;94350.00;10385712;28;20209;-63
2023/03/14 06:19:18;;;;;;;5.17;2.43;;;;;;;7.96;100.00;94356.81;10385771;28;20201;-62
2023/03/14 06:24:19;;;;;;;2.90;1.13;;;;;;;7.94;100.00;94338.75;10385043;28;20233;-63
2023/03/14 06:29:23;;;;;;;3.83;1.43;;;;;;;7.88;100.00;94359.63;10385227;28;20201;-62
2023/03/14 06:34:23;;;;;;;4.83;2.10;;;;;;;7.93;100.00;94372.84;10377029;28;20217;-62
2023/03/14 06:39:23;;;;;;;3.93;1.50;;;;;;;7.97;100.00;94384.50;10369774;28;20196;-62
2023/03/14 06:44:33;;;;;;;3.50;1.97;;;;;;;8.14;100.00;94375.28;10370106;28;20248;-62
2023/03/14 06:49:34;;;;;;;5.10;2.00;;;;;;;8.25;100.00;94357.44;10387178;28;20240;-62
2023/03/14 06:54:36;;;;;;;5.77;2.00;;;;;;;8.38;100.00;94360.84;10397722;28;20565;-62
2023/03/14 06:59:36;;;;;;;6.10;1.53;;;;;;;8.38;100.00;94354.84;10409652;28;20188;-62
2023/03/14 07:04:37;;;;;;;4.17;1.60;;;;;;;8.41;100.00;94351.84;10406551;28;20307;-62
2023/03/14 07:09:37;;;;;;;5.17;0.93;;;;;;;8.66;100.00;94362.47;10418489;28;20216;-62
2023/03/14 07:14:38;;;;;;;3.33;1.30;;;;;;;8.70;100.00;94368.13;10419134;28;20319;-62
2023/03/14 07:19:39;;;;;;;4.10;1.10;;;;;;;8.70;100.00;94365.50;10418025;28;20254;-61
2023/03/14 07:24:40;;;;;;;2.63;1.20;;;;;;;8.62;100.00;94376.94;10415780;28;20274;-60
2023/03/14 07:29:41;;;;;;;4.90;1.77;;;;;;;8.72;99.95;94382.53;10417520;28;20220;-58
2023/03/14 07:34:42;;;;;;;4.23;1.53;;;;;;;8.81;99.34;94385.75;10415837;28;20208;-61
2023/03/14 07:39:43;;;;;;;2.87;1.30;;;;;;;8.73;100.00;94394.59;10415752;28;20318;-62
2023/03/14 07:44:50;;;;;;;2.00;0.77;;;;;;;8.88;98.36;94386.56;10409283;28;20227;-61
2023/03/14 07:49:51;;;;;;;1.93;0.97;;;;;;;8.82;98.66;94389.97;10414870;28;20200;-59
2023/03/14 07:54:51;;;;;;;2.40;1.00;;;;;;;8.98;97.68;94378.28;10414694;28;20193;-61
2023/03/14 07:59:51;;;;;;;3.97;1.03;;;;;;;8.89;97.32;94366.47;10413735;28;20279;-59
2023/03/14 08:04:52;;;;;;;0.93;0.83;;;;;;;9.05;95.94;94360.81;10414305;28;20294;-61
2023/03/14 08:09:52;;;;;;;1.47;0.90;;;;;;;9.27;94.89;94348.28;10414953;28;20227;-61
2023/03/14 08:14:53;;;;;;;1.23;1.00;;;;;;;9.13;95.99;94375.44;10414031;28;20212;-62
2023/03/14 08:19:53;;;;;;;2.63;1.10;;;;;;;9.07;94.87;94371.06;10414411;28;20214;-62
2023/03/14 08:24:54;;;;;;;2.07;0.87;;;;;;;8.88;95.87;94383.94;10434989;22;20248;-63
2023/03/14 08:29:54;;;;;;;2.30;0.90;;;;;;;8.84;96.08;94380.13;10405085;28;20212;-63
2023/03/14 08:34:54;;;;;;;3.07;1.03;;;;;;;9.21;94.62;94350.91;10351238;28;20221;-63
2023/03/14 08:39:55;;;;;;;1.57;1.13;;;;;;;9.16;94.89;94375.03;10331778;28;20236;-63
2023/03/14 08:44:55;;;;;;;2.03;0.90;;;;;;;9.33;95.51;94371.97;10331660;28;20229;-62
2023/03/14 08:49:55;;;;;;;1.70;0.80;;;;;;;9.11;97.30;94374.84;10344344;28;20251;-62
2023/03/14 08:54:56;;;;;;;1.90;0.83;;;;;;;9.06;98.53;94387.72;10331504;28;20238;-61
2023/03/14 08:59:56;;;;;;;3.63;1.10;;;;;;;9.00;97.62;94372.88;10330780;28;20186;-64
2023/03/14 09:04:57;;;;;;;4.73;0.90;;;;;;;9.05;93.54;94360.81;10382208;28;20216;-62
2023/03/14 09:09:57;;;;;;;1.00;0.83;;;;;;;9.12;92.89;94350.34;10411646;28;20561;-63
2023/03/14 09:14:57;;;;;;;4.67;1.00;;;;;;;9.33;92.08;94357.09;10411637;28;20565;-63
2023/03/14 09:19:58;;;;;;;2.33;1.00;;;;;;;9.60;89.95;94349.94;10411711;28;20717;-63
2023/03/14 09:24:58;;;;;;;0.80;0.70;;;;;;;9.60;90.80;94349.94;10398309;28;20242;-61
2023/03/14 09:29:59;;;;;;;1.30;0.73;;;;;;;9.57;87.66;94326.84;10328636;28;20214;-63
2023/03/14 09:34:59;;;;;;;2.30;0.90;;;;;;;9.32;86.38;94326.75;10334790;28;20300;-63
2023/03/14 09:39:59;;;;;;;2.10;1.00;;;;;;;9.58;86.63;94331.03;10403454;28;20200;-62
2023/03/14 09:45:05;;;;;;;2.07;0.80;;;;;;;9.45;87.30;94346.81;10356570;28;20320;-63
2023/03/14 09:50:10;;;;;;;1.57;0.87;;;;;;;9.48;86.28;94330.72;10348402;28;20193;-63
2023/03/14 09:55:16;;;;;;;3.50;1.00;;;;;;;9.37;86.30;94336.56;10327820;28;20213;-63
2023/03/14 10:00:20;;;;;;;1.60;0.70;;;;;;;9.32;86.09;94344.25;10337700;28;20256;-63
2023/03/14 10:05:23;;;;;;;0.60;0.60;;;;;;;9.30;85.75;94339.22;10347645;28;20221;-63
2023/03/14 10:10:25;;;;;;;0.60;0.60;;;;;;;9.25;86.88;94355.53;10349770;28;20193;-62
2023/03/14 10:15:29;;;;;;;0.60;0.60;;;;;;;9.42;85.94;94334.16;10345492;28;20665;-63
2023/03/14 10:20:34;;;;;;;2.37;0.80;;;;;;;9.34;86.43;94342.22;10345429;28;20299;-59
2023/03/14 10:25:36;;;;;;;1.53;1.10;;;;;;;9.31;88.12;94360.91;10333070;28;20312;-62
2023/03/14 10:30:43;;;;;;;3.73;1.03;;;;;;;9.39;87.91;94353.66;10328101;28;20204;-62
2023/03/14 10:35:45;;;;;;;2.00;0.80;;;;;;;9.47;87.60;94352.63;10327080;28;20247;-63
2023/03/14 10:40:52;;;;;;;2.93;0.80;;;;;;;9.32;87.29;94344.25;10344902;28;20212;-62
2023/03/14 10:45:58;;;;;;;2.83;0.70;;;;;;;9.52;87.71;94354.59;10409151;28;20222;-63
2023/03/14 10:51:07;;;;;;;0.60;0.60;;;;;;;9.44;87.30;94359.06;10409066;28;20209;-63
2023/03/14 10:56:15;;;;;;;1.43;0.83;;;;;;;9.55;87.67;94349.75;10407279;28;20542;-61
2023/03/14 11:01:29;;;;;;;1.60;0.90;;;;;;;9.68;86.82;94348.91;10391982;28;20220;-63
2023/03/14 11:06:56;;;;;;;1.40;0.80;;;;;;;9.66;85.56;94339.66;10409406;28;20207;-60
2023/03/14 11:12:02;;;;;;;2.07;1.00;;;;;;;9.35;85.83;94359.50;10358111;28;20226;-62
2023/03/14 11:17:35;;;;;;;1.07;0.70;;;;;;;9.80;83.92;94331.53;10407643;28;20568;-62
2023/03/14 11:22:55;;;;;;;1.93;0.90;;;;;;;9.81;83.25;94335.75;10360061;28;20268;-61
2023/03/14 11:28:05;;;;;;;1.13;0.90;;;;;;;9.85;82.84;94320.44;10366657;28;20672;-61
2023/03/14 11:33:15;;;;;;;1.13;0.75;;;;;;;9.96;82.03;94295.44;10371758;28;20256;-61
2023/03/14 11:38:26;;;;;;;0.60;0.60;;;;;;;10.37;82.11;94306.41;10350025;28;20209;-62
2023/03/14 11:43:30;;;;;;;1.40;0.70;;;;;;;10.40;82.21;94306.78;10333259;28;20736;-61
2023/03/14 11:48:42;;;;;;;2.78;0.95;;;;;;;10.15;81.96;94283.19;10411207;28;20199;-62
2023/03/14 11:53:58;;;;;;;1.20;0.80;;;;;;;10.12;80.66;94287.06;10415606;28;20213;-61
2023/03/14 11:59:02;;;;;;;1.27;0.90;;;;;;;10.19;80.29;94266.06;10414246;28;20231;-62
2023/03/14 12:04:18;;;;;;;0.60;0.60;;;;;;;11.31;77.65;94244.13;10413839;28;20251;-62
2023/03/14 12:09:20;;;;;;;2.80;0.75;;;;;;;12.67;73.96;94211.91;10384416;28;20197;-63
2023/03/14 12:14:28;;;;;;;0.85;0.57;;;;;;;11.32;75.40;94231.84;10332185;28;20221;-60
2023/03/14 12:19:31;;;;;;;1.38;0.60;;;;;;;10.66;80.54;94303.13;10391729;28;20208;-62
2023/03/14 12:24:34;;;;;;;1.65;0.63;;;;;;;10.06;84.60;94352.50;10413553;28;20254;-60
2023/03/14 12:29:59;;;;;;;4.15;0.80;;;;;;;9.42;96.98;94423.81;10412534;28;20203;-60
2023/03/14 12:35:07;;;;;;;1.13;0.80;;;;;;;9.28;100.00;94396.13;10413576;28;20702;-61
2023/03/14 12:40:14;;;;;;;5.30;1.37;;;;;;;9.49;100.00;94395.00;10412052;28;20663;-58
2023/03/14 12:45:24;;;;;;;1.85;0.80;;;;;;;9.06;100.00;94416.44;10411414;28;20232;-61
2023/03/14 12:50:30;;;;;;;1.00;0.90;;;;;;;8.66;100.00;94412.06;10411941;28;20627;-62
2023/03/14 12:56:01;;;;;;;1.10;1.00;;;;;;;8.48;100.00;94391.78;10412838;28;20197;-61
2023/03/14 13:01:04;;;;;;;0.97;0.90;;;;;;;8.49;100.00;94393.41;10412762;28;20225;-61
2023/03/14 13:06:05;;;;;;;0.80;0.80;;;;;;;8.70;100.00;94391.59;10412235;28;20284;-61
2023/03/14 13:11:12;;;;;;;0.90;0.80;;;;;;;8.68;100.00;94404.03;10412409;28;20786;-61
2023/03/14 13:16:18;;;;;;;2.37;0.90;;;;;;;8.14;100.00;94390.94;10411036;28;20188;-59
2023/03/14 13:21:21;;;;;;;0.80;0.60;;;;;;;8.71;100.00;94387.97;10400213;28;20247;-59
2023/03/14 13:26:23;;;;;;;0.50;0.50;;;;;;;8.84;100.00;94363.66;10351709;28;20264;-58
2023/03/14 13:31:24;;;;;;;0.83;0.80;;;;;;;9.17;100.00;94357.56;10329283;28;20221;-57
2023/03/14 13:36:25;;;;;;;0.60;0.60;;;;;;;9.55;100.00;94352.38;10329623;28;20193;-60
2023/03/14 13:41:26;;;;;;;0.50;0.50;;;;;;;9.72;100.00;94336.22;10329843;28;20229;-61
2023/03/14 13:46:26;;;;;;;0.60;0.60;;;;;;;9.88;100.00;94304.34;10329781;28;20198;-59
2023/03/14 13:51:31;;;;;;;0.50;0.50;;;;;;;9.93;99.37;94299.25;10328874;28;20214;-60
2023/03/14 13:56:32;;;;;;;0.50;0.50;;;;;;;9.69;97.17;94297.41;10375813;28;20224;-60
2023/03/14 14:01:34;;;;;;;0.50;0.50;;;;;;;9.57;96.35;94292.88;10370267;28;20216;-59
2023/03/14 14:06:36;;;;;;;0.93;0.60;;;;;;;9.13;100.00;94311.94;10369133;28;20193;-59
2023/03/14 14:11:38;;;;;;;1.60;1.47;;;;;;;9.06;100.00;94340.72;10369225;28;20686;-59
2023/03/14 14:16:38;;;;;;;2.57;0.60;;;;;;;9.35;100.00;94320.31;10369071;28;20189;-60
2023/03/14 14:21:39;;;;;;;1.40;1.00;;;;;;;9.57;100.00;94313.78;10367069;28;20233;-60
2023/03/14 14:26:41;;;;;;;0.50;0.50;;;;;;;9.58;100.00;94310.13;10390226;22;20237;-65
2023/03/14 14:31:43;;;;;;;1.45;0.65;;;;;;;9.64;100.00;94311.13;10408380;28;20662;-65
2023/03/14 14:36:45;;;;;;;0.93;0.67;;;;;;;9.44;100.00;94321.69;10394101;28;20232;-65
2023/03/14 14:41:48;;;;;;;0.90;0.87;;;;;;;9.46;100.00;94315.25;10367356;28;20217;-65
2023/03/14 14:46:48;;;;;;;0.63;0.63;;;;;;;10.41;100.00;94282.19;10349453;28;20221;-65
2023/03/14 14:51:49;;;;;;;0.60;0.60;;;;;;;10.26;94.99;94252.91;10356697;28;20181;-65
2023/03/14 14:56:52;;;;;;;0.70;0.70;;;;;;;10.12;96.11;94263.53;10360448;28;20585;-65
2023/03/14 15:01:57;;;;;;;1.00;0.80;;;;;;;9.90;91.59;94234.31;10356823;28;20304;-64
2023/03/14 15:06:58;;;;;;;1.23;0.70;;;;;;;10.05;89.63;94234.00;10362421;28;20205;-64
2023/03/14 15:11:58;;;;;;;3.03;1.17;;;;;;;10.49;89.30;94240.06;10367585;28;20251;-64
2023/03/14 15:16:58;;;;;;;3.70;2.35;;;;;;;10.76;84.75;94207.53;10369006;28;20290;-64
2023/03/14 15:21:59;;;;;;;25.05;13.73;;;;;;;10.44;86.53;94234.66;10372042;28;20220;-64
2023/03/14 15:26:59;;;;;;;9.27;6.60;;;;;;;10.17;86.63;94228.88;10373183;28;20315;-64
2023/03/14 15:32:00;;;;;;;2.70;0.60;;;;;;;10.07;87.26;94249.47;10360337;28;20205;-63
2023/03/14 15:37:06;;;;;;;0.90;0.90;;;;;;;9.93;88.55;94257.41;10358350;28;20355;-63
2023/03/14 15:42:07;;;;;;;1.20;0.87;;;;;;;9.98;88.60;94248.94;10369078;28;20229;-63
2023/03/14 15:47:10;;;;;;;0.73;0.60;;;;;;;9.85;88.10;94256.88;10371537;28;22048;-64
2023/03/14 15:52:10;;;;;;;0.83;0.63;;;;;;;9.75;88.06;94265.97;10370458;28;20205;-64
2023/03/14 15:57:10;;;;;;;2.60;0.90;;;;;;;9.87;87.84;94257.47;10359210;28;20732;-63
2023/03/14 16:02:11;;;;;;;3.07;0.80;;;;;;;9.73;88.82;94280.31;10350556;28;20407;-63
2023/03/14 16:07:11;;;;;;;1.42;1.10;;;;;;;9.46;94.81;94341.38;10350244;28;20217;-64
2023/03/14 16:12:11;;;;;;;1.13;0.90;;;;;;;8.84;100.00;94382.75;10348898;28;20305;-64
2023/03/14 16:17:12;;;;;;;1.83;1.20;;;;;;;8.35;100.00;94403.00;10349436;28;20272;-64
2023/03/14 16:22:12;;;;;;;1.73;1.33;;;;;;;7.99;100.00;94417.19;10349629;28;20791;-64
2023/03/14 16:27:13;;;;;;;2.30;1.60;;;;;;;7.70;100.00;94436.53;10349785;28;20317;-63
2023/03/14 16:32:14;;;;;;;1.00;1.00;;;;;;;7.55;100.00;94459.31;10348662;28;20207;-62
2023/03/14 16:37:14;;;;;;;0.70;0.70;;;;;;;7.40;100.00;94457.66;10353976;28;20252;-64
2023/03/14 16:42:14;;;;;;;0.60;0.50;;;;;;;7.25;100.00;94486.41;10349610;28;20582;-65
2023/03/14 16:47:15;;;;;;;1.83;0.60;;;;;;;7.18;100.00;94509.00;10351278;28;20586;-64
2023/03/14 16:52:15;;;;;;;0.90;0.70;;;;;;;7.01;100.00;94533.72;10355428;28;20564;-64
2023/03/14 16:57:16;;;;;;;2.10;1.30;;;;;;;4.59;100.00;94672.50;10347909;28;20321;-64
2023/03/14 17:02:16;;;;;;;1.03;0.93;;;;;;;3.59;100.00;94685.13;10367585;28;20221;-64
2023/03/14 17:07:16;;;;;;;4.40;1.63;;;;;;;3.53;100.00;94735.78;10369664;28;20225;-64
2023/03/14 17:12:17;;;;;;;1.03;0.93;;;;;;;3.36;100.00;94772.00;10371293;28;20220;-64
2023/03/14 17:17:17;;;;;;;1.00;1.00;;;;;;;3.18;100.00;94815.31;10371609;28;20217;-63
2023/03/14 17:22:17;;;;;;;0.70;0.70;;;;;;;2.98;100.00;94858.72;10372561;28;20232;-65
2023/03/14 17:27:19;;;;;;;0.70;0.70;;;;;;;2.80;100.00;94889.84;10371623;28;20315;-62
2023/03/14 17:32:19;;;;;;;1.00;1.00;;;;;;;2.65;100.00;94916.25;10371475;28;20251;-64
2023/03/14 17:37:19;;;;;;;1.27;1.00;;;;;;;2.38;100.00;94962.91;10371485;28;20236;-63
2023/03/14 17:42:20;;;;;;;0.80;0.80;;;;;;;2.17;100.00;94976.94;10355967;28;20280;-62
2023/03/14 17:47:20;;;;;;;1.20;1.10;;;;;;;2.06;100.00;94982.34;10348274;28;20213;-63
2023/03/14 17:52:20;;;;;;;1.53;1.43;;;;;;;1.95;100.00;95002.22;10349247;28;20223;-63
2023/03/14 17:57:21;;;;;;;1.40;1.30;;;;;;;1.88;100.00;95031.38;10363873;28;20216;-63
2023/03/14 18:02:22;;;;;;;0.80;0.80;;;;;;;1.58;100.00;95072.81;10370299;28;20367;-63
2023/03/14 18:07:23;;;;;;;2.00;1.30;;;;;;;1.49;100.00;95106.41;10363165;28;20213;-63
2023/03/14 18:12:23;;;;;;;1.17;1.03;;;;;;;1.14;100.00;95133.63;10369997;28;20219;-63
2023/03/14 18:17:23;;;;;;;1.40;1.30;;;;;;;1.02;100.00;95167.25;10369431;28;20582;-63
2023/03/14 18:22:24;;;;;;;2.70;1.70;;;;;;;0.98;100.00;95190.88;10369446;28;21163;-64
2023/03/14 18:27:24;;;;;;;2.67;2.40;;;;;;;0.93;100.00;95191.28;10364533;28;20711;-63
2023/03/14 18:32:24;;;;;;;5.57;2.20;;;;;;;0.83;100.00;95185.31;10348489;28;20197;-63
2023/03/14 18:37:25;;;;;;;3.63;3.33;;;;;;;0.78;100.00;95202.94;10346232;28;20224;-63
2023/03/14 18:42:25;;;;;;;7.07;5.20;;;;;;;0.89;100.00;95226.84;10347882;28;20217;-64
2023/03/14 18:47:26;;;;;;;3.37;2.10;;;;;;;0.91;100.00;95236.22;10345795;28;20264;-63
2023/03/14 18:52:27;;;;;;;3.00;2.20;;;;;;;0.87;100.00;95238.22;10356866;28;20656;-63
2023/03/14 18:57:27;;;;;;;5.17;1.83;;;;;;;0.80;100.00;95271.47;10344197;28;20268;-63
2023/03/14 19:02:27;;;;;;;6.73;2.30;;;;;;;0.85;100.00;95281.38;10349902;28;20239;-64
2023/03/14 19:07:28;;;;;;;6.47;3.10;;;;;;;0.81;100.00;95298.88;10348698;28;20216;-63
2023/03/14 19:12:29;;;;;;;7.47;2.93;;;;;;;0.72;100.00;95312.56;10334335;28;20282;-62
2023/03/14 19:17:29;;;;;;;7.77;3.30;;;;;;;0.73;100.00;95328.81;10327867;28;20562;-63
2023/03/14 19:22:31;;;;;;;14.77;3.93;;;;;;;0.63;100.00;95339.91;10327707;28;20353;-63
2023/03/14 19:27:31;;;;;;;7.90;3.03;;;;;;;0.59;100.00;95337.72;10327819;28;20242;-63
2023/03/14 19:32:31;;;;;;;13.20;3.70;;;;;;;0.55;100.00;95355.19;10342197;28;20186;-64
2023/03/14 19:37:32;;;;;;;16.10;3.80;;;;;;;0.58;100.00;95357.50;10353991;28;20205;-63
2023/03/14 19:42:32;;;;;;;21.53;4.20;;;;;;;0.43;100.00;95382.81;10368077;28;20220;-63
2023/03/14 19:47:32;;;;;;;16.47;3.50;;;;;;;0.49;100.00;95402.91;10367231;28;20231;-62
2023/03/14 19:52:33;;;;;;;20.40;4.47;;;;;;;0.39;100.00;95406.38;10355050;28;20223;-64
2023/03/14 19:57:33;;;;;;;12.20;4.67;;;;;;;0.60;100.00;95427.78;10374244;28;20209;-64
2023/03/14 20:02:35;;;;;;;13.73;5.03;;;;;;;0.70;100.00;95428.66;10374795;28;20765;-64
2023/03/14 20:07:36;;;;;;;17.07;5.23;;;;;;;0.68;100.00;95437.47;10374156;28;20582;-64
2023/03/14 20:12:38;;;;;;;10.90;5.30;;;;;;;0.58;100.00;95464.91;10400513;28;20188;-64
2023/03/14 20:17:39;;;;;;;10.10;3.90;;;;;;;0.54;100.00;95484.97;10415704;28;20286;-66
2023/03/14 20:22:40;;;;;;;12.80;3.37;;;;;;;0.45;100.00;95485.72;10414918;28;20277;-64
2023/03/14 20:27:40;;;;;;;21.27;3.13;;;;;;;0.47;100.00;95473.53;10436608;22;20245;-62
2023/03/14 20:32:41;;;;;;;13.83;3.33;;;;;;;0.49;100.00;95476.78;10414466;28;20724;-60
2023/03/14 20:37:41;;;;;;;12.60;2.17;;;;;;;0.51;100.00;95486.03;10398495;28;20694;-63
2023/03/14 20:42:42;;;;;;;13.50;2.50;;;;;;;0.48;100.00;95490.63;10373944;28;20993;-59
2023/03/14 20:47:42;;;;;;;7.90;2.20;;;;;;;0.33;100.00;95493.47;10373079;28;20724;-60
2023/03/14 20:52:44;;;;;;;6.97;1.83;;;;;;;0.29;100.00;95493.84;10369145;28;20599;-60
2023/03/14 20:57:44;;;;;;;8.40;2.17;;;;;;;0.09;100.00;95504.00;10370106;28;20619;-59
2023/03/14 21:02:44;;;;;;;11.87;2.17;;;;;;;0.02;100.00;95525.22;10369081;28;20225;-62
2023/03/14 21:07:45;;;;;;;5.47;2.00;;;;;;;-0.01;100.00;95528.84;10369822;28;20247;-61
2023/03/14 21:12:45;;;;;;;11.10;1.90;;;;;;;-0.16;100.00;95533.44;10369383;28;20205;-61
2023/03/14 21:17:46;;;;;;;8.73;2.10;;;;;;;-0.20;100.00;95550.88;10369226;28;20248;-61
2023/03/14 21:22:46;;;;;;;10.20;2.17;;;;;;;-0.31;100.00;95555.22;10368929;28;20587;-57
2023/03/14 21:27:48;;;;;;;17.70;2.40;;;;;;;-0.41;100.00;95563.63;10368952;28;20319;-61
2023/03/14 21:32:49;;;;;;;8.00;2.37;;;;;;;-0.43;100.00;95564.69;10369076;28;20613;-60
2023/03/14 21:37:50;;;;;;;13.60;2.03;;;;;;;-0.35;100.00;95557.22;10368289;28;20220;-62
2023/03/14 21:42:52;;;;;;;18.03;2.67;;;;;;;-0.31;100.00;95573.22;10369220;28;20220;-60
2023/03/14 21:47:53;;;;;;;10.73;2.23;;;;;;;-0.36;100.00;95582.09;10368256;28;20217;-62
2023/03/14 21:52:55;;;;;;;8.67;2.57;;;;;;;-0.39;100.00;95587.47;10368348;28;20195;-62
2023/03/14 21:57:55;;;;;;;11.83;2.33;;;;;;;-0.58;100.00;95593.22;10367988;28;20214;-62
2023/03/14 22:02:56;;;;;;;12.83;1.90;;;;;;;-0.64;100.00;95601.41;10367791;28;20235;-62
2023/03/14 22:07:56;;;;;;;14.57;2.40;;;;;;;-0.72;100.00;95603.69;10367587;28;20222;-61
2023/03/14 22:12:57;;;;;;;10.03;2.13;;;;;;;-0.76;100.00;95612.59;10367280;28;20242;-62
2023/03/14 22:17:57;;;;;;;10.40;2.10;;;;;;;-0.80;100.00;95617.13;10366936;28;20224;-61
2023/03/14 22:22:57;;;;;;;5.27;2.07;;;;;;;-0.90;100.00;95629.84;10367362;28;20220;-61
2023/03/14 22:27:58;;;;;;;10.10;2.37;;;;;;;-0.83;100.00;95643.06;10366643;28;20299;-59
2023/03/14 22:32:58;;;;;;;9.30;1.93;;;;;;;-0.98;100.00;95644.19;10367326;28;20213;-61
2023/03/14 22:37:58;;;;;;;6.37;2.10;;;;;;;-0.97;100.00;95662.06;10366917;28;20704;-58
2023/03/14 22:42:59;;;;;;;16.13;2.00;;;;;;;-0.95;100.00;95665.38;10366936;28;20695;-60
2023/03/14 22:47:59;;;;;;;10.63;2.50;;;;;;;-0.99;100.00;95674.22;10366644;28;20640;-59
2023/03/14 22:52:59;;;;;;;15.17;2.77;;;;;;;-1.03;100.00;95679.69;10366285;28;20678;-61
2023/03/14 22:58:00;;;;;;;10.67;2.63;;;;;;;-1.09;100.00;95684.38;10366846;28;20574;-61
2023/03/14 23:03:00;;;;;;;9.97;2.10;;;;;;;-1.06;100.00;95687.63;10354439;28;20638;-58
2023/03/14 23:08:01;;;;;;;11.43;2.43;;;;;;;-1.10;100.00;95692.19;10325963;28;20597;-59
2023/03/14 23:13:05;;;;;;;5.87;1.80;;;;;;;-1.09;100.00;95694.66;10325805;28;20198;-58
2023/03/14 23:18:05;;;;;;;16.80;2.27;;;;;;;-1.16;100.00;95688.28;10324952;28;20214;-61
2023/03/14 23:23:07;;;;;;;10.03;2.00;;;;;;;-1.12;100.00;95707.72;10325747;28;20218;-58
2023/03/14 23:28:07;;;;;;;10.07;2.03;;;;;;;-1.25;100.00;95699.22;10329006;28;20261;-61